sensor_id;sensor_type;location;lat;lon;timestamp;P1;durP1;ratioP1;P2;durP2;ratioP2
22673;SDS011;11504;43.334;21.918;2023-04-01T00:04:18;12.0;;;11.0;;
22673;SDS011;11504;43.334;21.918;2023-04-01T00:08:55;10.0;;;10.0;;
22673;SDS011;11504;43.334;21.918;2023-04-01T00:13:32;10.0;;;10.0;;
22673;SDS011;11504;43.334;21.918;2023-04-01T00:18:10;9.0;;;8.0;;
22673;SDS011;11504;43.334;21.918;2023-04-01T00:22:49;9.0;;;8.0;;
22673;SDS011;11504;43.334;21.918;2023-04-01T00:27:26;10.0;;;10.0;;
22673;SDS011;11504;43.334;21.918;2023-04-01T00:32:04;10.0;;;10.0;;
22673;SDS011;11504;43.334;21.918;2023-04-01T00:36:41;11.0;;;11.0;;
22673;SDS011;11504;43.334;21.918;2023-04-01T00:41:20;11.0;;;11.0;;
22673;SDS011;11504;43.334;21.918;2023-04-01T00:45:57;11.0;;;10.0;;
22673;SDS011;11504;43.334;21.918;2023-04-01T00:50:38;11.0;;;10.0;;
22673;SDS011;11504;43.334;21.918;2023-04-01T00:55:41;11.0;;;10.0;;
22673;SDS011;11504;43.334;21.918;2023-04-01T01:00:37;11.0;;;10.0;;
22673;SDS011;11504;43.334;21.918;2023-04-01T01:05:23;12.0;;;11.0;;
22673;SDS011;11504;43.334;21.918;2023-04-01T01:10:50;12.0;;;11.0;;
22673;SDS011;11504;43.334;21.918;2023-04-01T01:15:37;13.0;;;12.0;;
22673;SDS011;11504;43.334;21.918;2023-04-01T01:21:12;13.0;;;12.0;;
22673;SDS011;11504;43.334;21.918;2023-04-01T01:26:39;12.0;;;12.0;;
22673;SDS011;11504;43.334;21.918;2023-04-01T01:31:37;12.0;;;12.0;;
22673;SDS011;11504;43.334;21.918;2023-04-01T01:36:33;12.0;;;11.0;;
22673;SDS011;11504;43.334;21.918;2023-04-01T01:41:17;12.0;;;11.0;;
22673;SDS011;11504;43.334;21.918;2023-04-01T01:46:07;12.0;;;12.0;;
22673;SDS011;11504;43.334;21.918;2023-04-01T01:50:53;12.0;;;12.0;;
22673;SDS011;11504;43.334;21.918;2023-04-01T01:55:36;12.0;;;12.0;;
22673;SDS011;11504;43.334;21.918;2023-04-01T02:00:19;12.0;;;12.0;;
22673;SDS011;11504;43.334;21.918;2023-04-01T02:04:58;14.0;;;14.0;;
22673;SDS011;11504;43.334;21.918;2023-04-01T02:09:38;14.0;;;14.0;;
22673;SDS011;11504;43.334;21.918;2023-04-01T02:14:22;14.0;;;14.0;;
22673;SDS011;11504;43.334;21.918;2023-04-01T02:19:07;17.0;;;16.0;;
22673;SDS011;11504;43.334;21.918;2023-04-01T02:23:47;17.0;;;16.0;;
22673;SDS011;11504;43.334;21.918;2023-04-01T02:28:28;18.0;;;18.0;;
22673;SDS011;11504;43.334;21.918;2023-04-01T02:33:07;18.0;;;18.0;;
22673;SDS011;11504;43.334;21.918;2023-04-01T02:37:48;20.0;;;19.0;;
22673;SDS011;11504;43.334;21.918;2023-04-01T02:42:25;20.0;;;19.0;;
22673;SDS011;11504;43.334;21.918;2023-04-01T02:47:02;18.0;;;17.0;;
22673;SDS011;11504;43.334;21.918;2023-04-01T02:51:39;18.0;;;17.0;;
22673;SDS011;11504;43.334;21.918;2023-04-01T02:56:16;16.0;;;15.0;;
22673;SDS011;11504;43.334;21.918;2023-04-01T03:00:52;16.0;;;15.0;;
22673;SDS011;11504;43.334;21.918;2023-04-01T03:05:29;15.0;;;14.0;;
22673;SDS011;11504;43.334;21.918;2023-04-01T03:10:08;15.0;;;14.0;;
22673;SDS011;11504;43.334;21.918;2023-04-01T03:14:46;14.0;;;14.0;;
22673;SDS011;11504;43.334;21.918;2023-04-01T03:19:22;14.0;;;14.0;;
22673;SDS011;11504;43.334;21.918;2023-04-01T03:23:59;14.0;;;14.0;;
22673;SDS011;11504;43.334;21.918;2023-04-01T03:28:37;12.0;;;12.0;;
22673;SDS011;11504;43.334;21.918;2023-04-01T03:33:13;12.0;;;12.0;;
22673;SDS011;11504;43.334;21.918;2023-04-01T03:37:51;10.0;;;10.0;;
22673;SDS011;11504;43.334;21.918;2023-04-01T03:42:30;10.0;;;10.0;;
22673;SDS011;11504;43.334;21.918;2023-04-01T03:47:06;10.0;;;10.0;;
22673;SDS011;11504;43.334;21.918;2023-04-01T03:51:44;10.0;;;10.0;;
22673;SDS011;11504;43.334;21.918;2023-04-01T03:56:20;10.0;;;9.0;;
22673;SDS011;11504;43.334;21.918;2023-04-01T04:00:57;10.0;;;9.0;;
22673;SDS011;11504;43.334;21.918;2023-04-01T04:05:33;10.0;;;8.0;;
22673;SDS011;11504;43.334;21.918;2023-04-01T04:10:10;10.0;;;8.0;;
22673;SDS011;11504;43.334;21.918;2023-04-01T04:14:46;9.0;;;7.0;;
22673;SDS011;11504;43.334;21.918;2023-04-01T04:19:23;9.0;;;7.0;;
22673;SDS011;11504;43.334;21.918;2023-04-01T04:24:01;9.0;;;7.0;;
22673;SDS011;11504;43.334;21.918;2023-04-01T04:28:39;9.0;;;7.0;;
22673;SDS011;11504;43.334;21.918;2023-04-01T04:33:17;9.0;;;7.0;;
22673;SDS011;11504;43.334;21.918;2023-04-01T04:37:53;9.0;;;7.0;;
22673;SDS011;11504;43.334;21.918;2023-04-01T04:42:30;9.0;;;7.0;;
22673;SDS011;11504;43.334;21.918;2023-04-01T04:47:06;9.0;;;8.0;;
22673;SDS011;11504;43.334;21.918;2023-04-01T04:51:42;9.0;;;8.0;;
22673;SDS011;11504;43.334;21.918;2023-04-01T04:56:22;9.0;;;8.0;;
22673;SDS011;11504;43.334;21.918;2023-04-01T05:00:58;9.0;;;8.0;;
22673;SDS011;11504;43.334;21.918;2023-04-01T05:05:34;12.0;;;11.0;;
22673;SDS011;11504;43.334;21.918;2023-04-01T05:10:10;12.0;;;11.0;;
22673;SDS011;11504;43.334;21.918;2023-04-01T05:14:47;12.0;;;11.0;;
22673;SDS011;11504;43.334;21.918;2023-04-01T05:19:23;15.0;;;14.0;;
22673;SDS011;11504;43.334;21.918;2023-04-01T05:23:59;15.0;;;14.0;;
22673;SDS011;11504;43.334;21.918;2023-04-01T05:28:36;18.0;;;17.0;;
22673;SDS011;11504;43.334;21.918;2023-04-01T05:33:15;18.0;;;17.0;;
22673;SDS011;11504;43.334;21.918;2023-04-01T05:37:52;21.0;;;20.0;;
22673;SDS011;11504;43.334;21.918;2023-04-01T05:42:29;21.0;;;20.0;;
22673;SDS011;11504;43.334;21.918;2023-04-01T05:47:06;21.0;;;20.0;;
22673;SDS011;11504;43.334;21.918;2023-04-01T05:51:43;21.0;;;20.0;;
22673;SDS011;11504;43.334;21.918;2023-04-01T05:56:20;21.0;;;19.0;;
22673;SDS011;11504;43.334;21.918;2023-04-01T06:01:02;21.0;;;19.0;;
22673;SDS011;11504;43.334;21.918;2023-04-01T06:05:45;26.0;;;24.0;;
22673;SDS011;11504;43.334;21.918;2023-04-01T06:10:40;26.0;;;24.0;;
22673;SDS011;11504;43.334;21.918;2023-04-01T06:15:53;31.0;;;30.0;;
22673;SDS011;11504;43.334;21.918;2023-04-01T06:21:05;31.0;;;30.0;;
22673;SDS011;11504;43.334;21.918;2023-04-01T06:26:14;36.0;;;34.0;;
22673;SDS011;11504;43.334;21.918;2023-04-01T06:31:14;36.0;;;34.0;;
22673;SDS011;11504;43.334;21.918;2023-04-01T06:36:34;41.0;;;37.0;;
22673;SDS011;11504;43.334;21.918;2023-04-01T06:42:01;41.0;;;37.0;;
22673;SDS011;11504;43.334;21.918;2023-04-01T06:46:58;42.0;;;39.0;;
22673;SDS011;11504;43.334;21.918;2023-04-01T06:52:12;42.0;;;39.0;;
22673;SDS011;11504;43.334;21.918;2023-04-01T06:57:21;43.0;;;41.0;;
22673;SDS011;11504;43.334;21.918;2023-04-01T07:02:29;43.0;;;41.0;;
22673;SDS011;11504;43.334;21.918;2023-04-01T07:07:34;36.0;;;34.0;;
22673;SDS011;11504;43.334;21.918;2023-04-01T07:12:38;36.0;;;34.0;;
22673;SDS011;11504;43.334;21.918;2023-04-01T07:17:33;29.0;;;28.0;;
22673;SDS011;11504;43.334;21.918;2023-04-01T07:22:32;29.0;;;28.0;;
22673;SDS011;11504;43.334;21.918;2023-04-01T07:27:15;24.0;;;24.0;;
22673;SDS011;11504;43.334;21.918;2023-04-01T07:32:18;24.0;;;24.0;;
22673;SDS011;11504;43.334;21.918;2023-04-01T07:37:30;20.0;;;19.0;;
22673;SDS011;11504;43.334;21.918;2023-04-01T07:42:33;20.0;;;19.0;;
22673;SDS011;11504;43.334;21.918;2023-04-01T07:47:49;21.0;;;20.0;;
22673;SDS011;11504;43.334;21.918;2023-04-01T07:52:54;21.0;;;20.0;;
22673;SDS011;11504;43.334;21.918;2023-04-01T07:57:55;22.0;;;21.0;;
22673;SDS011;11504;43.334;21.918;2023-04-01T08:03:10;22.0;;;21.0;;
22673;SDS011;11504;43.334;21.918;2023-04-01T08:08:30;31.0;;;30.0;;
22673;SDS011;11504;43.334;21.918;2023-04-01T08:13:55;31.0;;;30.0;;
22673;SDS011;11504;43.334;21.918;2023-04-01T08:19:22;40.0;;;38.0;;
22673;SDS011;11504;43.334;21.918;2023-04-01T08:24:43;40.0;;;38.0;;
22673;SDS011;11504;43.334;21.918;2023-04-01T08:29:46;36.0;;;34.0;;
22673;SDS011;11504;43.334;21.918;2023-04-01T08:34:47;36.0;;;34.0;;
22673;SDS011;11504;43.334;21.918;2023-04-01T08:39:58;33.0;;;30.0;;
22673;SDS011;11504;43.334;21.918;2023-04-01T08:45:44;28.0;;;26.0;;
22673;SDS011;11504;43.334;21.918;2023-04-01T08:51:48;28.0;;;26.0;;
22673;SDS011;11504;43.334;21.918;2023-04-01T08:57:07;23.0;;;22.0;;
22673;SDS011;11504;43.334;21.918;2023-04-01T09:02:37;23.0;;;22.0;;
22673;SDS011;11504;43.334;21.918;2023-04-01T09:07:47;24.0;;;23.0;;
22673;SDS011;11504;43.334;21.918;2023-04-01T09:13:01;24.0;;;23.0;;
22673;SDS011;11504;43.334;21.918;2023-04-01T09:18:22;25.0;;;24.0;;
22673;SDS011;11504;43.334;21.918;2023-04-01T09:23:43;25.0;;;24.0;;
22673;SDS011;11504;43.334;21.918;2023-04-01T09:28:47;24.0;;;23.0;;
22673;SDS011;11504;43.334;21.918;2023-04-01T09:34:26;24.0;;;23.0;;
22673;SDS011;11504;43.334;21.918;2023-04-01T09:39:39;24.0;;;22.0;;
22673;SDS011;11504;43.334;21.918;2023-04-01T09:44:59;24.0;;;22.0;;
22673;SDS011;11504;43.334;21.918;2023-04-01T09:50:20;37.0;;;35.0;;
22673;SDS011;11504;43.334;21.918;2023-04-01T09:58:41;50.0;;;48.0;;
22673;SDS011;11504;43.334;21.918;2023-04-01T10:09:08;42.0;;;40.0;;
22673;SDS011;11504;43.334;21.918;2023-04-01T10:22:15;35.0;;;33.0;;
22673;SDS011;11504;43.334;21.918;2023-04-01T10:28:01;39.0;;;37.0;;
22673;SDS011;11504;43.334;21.918;2023-04-01T10:34:09;39.0;;;37.0;;
22673;SDS011;11504;43.334;21.918;2023-04-01T10:42:20;43.0;;;41.0;;
22673;SDS011;11504;43.334;21.918;2023-04-01T10:51:14;32.0;;;30.0;;
22673;SDS011;11504;43.334;21.918;2023-04-01T10:56:40;20.0;;;19.0;;
22673;SDS011;11504;43.334;21.918;2023-04-01T11:02:17;20.0;;;19.0;;
22673;SDS011;11504;43.334;21.918;2023-04-01T11:10:17;18.0;;;17.0;;
22673;SDS011;11504;43.334;21.918;2023-04-01T11:18:43;16.0;;;15.0;;
22673;SDS011;11504;43.334;21.918;2023-04-01T11:26:01;16.0;;;16.0;;
22673;SDS011;11504;43.334;21.918;2023-04-01T11:31:39;16.0;;;16.0;;
22673;SDS011;11504;43.334;21.918;2023-04-01T11:36:50;17.0;;;16.0;;
22673;SDS011;11504;43.334;21.918;2023-04-01T11:41:50;17.0;;;16.0;;
22673;SDS011;11504;43.334;21.918;2023-04-01T11:46:56;15.0;;;12.0;;
22673;SDS011;11504;43.334;21.918;2023-04-01T11:52:18;15.0;;;12.0;;
22673;SDS011;11504;43.334;21.918;2023-04-01T11:57:40;13.0;;;9.0;;
22673;SDS011;11504;43.334;21.918;2023-04-01T12:02:48;13.0;;;9.0;;
22673;SDS011;11504;43.334;21.918;2023-04-01T12:08:07;12.0;;;10.0;;
22673;SDS011;11504;43.334;21.918;2023-04-01T12:13:41;12.0;;;10.0;;
22673;SDS011;11504;43.334;21.918;2023-04-01T12:18:48;10.0;;;10.0;;
22673;SDS011;11504;43.334;21.918;2023-04-01T12:24:36;10.0;;;10.0;;
22673;SDS011;11504;43.334;21.918;2023-04-01T12:32:01;11.0;;;10.0;;
22673;SDS011;11504;43.334;21.918;2023-04-01T12:37:16;12.0;;;11.0;;
22673;SDS011;11504;43.334;21.918;2023-04-01T12:42:27;12.0;;;11.0;;
22673;SDS011;11504;43.334;21.918;2023-04-01T12:48:06;12.0;;;11.0;;
22673;SDS011;11504;43.334;21.918;2023-04-01T12:56:40;12.0;;;11.0;;
22673;SDS011;11504;43.334;21.918;2023-04-01T13:02:25;12.0;;;11.0;;
22673;SDS011;11504;43.334;21.918;2023-04-01T13:08:12;12.0;;;10.0;;
22673;SDS011;11504;43.334;21.918;2023-04-01T13:13:51;12.0;;;10.0;;
22673;SDS011;11504;43.334;21.918;2023-04-01T13:19:28;11.0;;;10.0;;
22673;SDS011;11504;43.334;21.918;2023-04-01T13:24:41;11.0;;;10.0;;
22673;SDS011;11504;43.334;21.918;2023-04-01T13:29:36;10.0;;;10.0;;
22673;SDS011;11504;43.334;21.918;2023-04-01T13:34:47;10.0;;;10.0;;
22673;SDS011;11504;43.334;21.918;2023-04-01T13:40:40;10.0;;;10.0;;
22673;SDS011;11504;43.334;21.918;2023-04-01T13:46:10;11.0;;;10.0;;
22673;SDS011;11504;43.334;21.918;2023-04-01T13:51:46;11.0;;;10.0;;
22673;SDS011;11504;43.334;21.918;2023-04-01T13:57:14;12.0;;;11.0;;
22673;SDS011;11504;43.334;21.918;2023-04-01T14:02:58;12.0;;;11.0;;
22673;SDS011;11504;43.334;21.918;2023-04-01T14:08:46;13.0;;;12.0;;
22673;SDS011;11504;43.334;21.918;2023-04-01T14:14:28;13.0;;;12.0;;
22673;SDS011;11504;43.334;21.918;2023-04-01T14:20:22;14.0;;;13.0;;
22673;SDS011;11504;43.334;21.918;2023-04-01T14:25:48;12.0;;;12.0;;
22673;SDS011;11504;43.334;21.918;2023-04-01T14:33:23;12.0;;;12.0;;
22673;SDS011;11504;43.334;21.918;2023-04-01T14:38:42;11.0;;;10.0;;
22673;SDS011;11504;43.334;21.918;2023-04-01T14:44:11;11.0;;;10.0;;
22673;SDS011;11504;43.334;21.918;2023-04-01T14:49:34;10.0;;;10.0;;
22673;SDS011;11504;43.334;21.918;2023-04-01T14:54:32;10.0;;;10.0;;
22673;SDS011;11504;43.334;21.918;2023-04-01T14:59:29;10.0;;;10.0;;
22673;SDS011;11504;43.334;21.918;2023-04-01T15:04:44;10.0;;;10.0;;
22673;SDS011;11504;43.334;21.918;2023-04-01T15:10:12;10.0;;;9.0;;
22673;SDS011;11504;43.334;21.918;2023-04-01T15:16:10;9.0;;;8.0;;
22673;SDS011;11504;43.334;21.918;2023-04-01T15:21:38;9.0;;;8.0;;
22673;SDS011;11504;43.334;21.918;2023-04-01T15:27:27;11.0;;;10.0;;
22673;SDS011;11504;43.334;21.918;2023-04-01T15:32:55;11.0;;;10.0;;
22673;SDS011;11504;43.334;21.918;2023-04-01T15:38:36;13.0;;;12.0;;
22673;SDS011;11504;43.334;21.918;2023-04-01T15:43:41;13.0;;;12.0;;
22673;SDS011;11504;43.334;21.918;2023-04-01T15:48:55;14.0;;;13.0;;
22673;SDS011;11504;43.334;21.918;2023-04-01T15:54:21;14.0;;;13.0;;
22673;SDS011;11504;43.334;21.918;2023-04-01T16:00:02;15.0;;;14.0;;
22673;SDS011;11504;43.334;21.918;2023-04-01T16:04:58;15.0;;;14.0;;
22673;SDS011;11504;43.334;21.918;2023-04-01T16:10:17;14.0;;;13.0;;
22673;SDS011;11504;43.334;21.918;2023-04-01T16:15:30;13.0;;;12.0;;
22673;SDS011;11504;43.334;21.918;2023-04-01T16:20:40;13.0;;;12.0;;
22673;SDS011;11504;43.334;21.918;2023-04-01T16:25:44;12.0;;;12.0;;
22673;SDS011;11504;43.334;21.918;2023-04-01T16:30:56;12.0;;;12.0;;
22673;SDS011;11504;43.334;21.918;2023-04-01T16:36:08;12.0;;;11.0;;
22673;SDS011;11504;43.334;21.918;2023-04-01T16:41:19;12.0;;;11.0;;
22673;SDS011;11504;43.334;21.918;2023-04-01T16:46:32;14.0;;;12.0;;
22673;SDS011;11504;43.334;21.918;2023-04-01T16:51:18;14.0;;;12.0;;
22673;SDS011;11504;43.334;21.918;2023-04-01T16:56:13;16.0;;;13.0;;
22673;SDS011;11504;43.334;21.918;2023-04-01T17:01:10;16.0;;;13.0;;
22673;SDS011;11504;43.334;21.918;2023-04-01T17:06:25;16.0;;;13.0;;
22673;SDS011;11504;43.334;21.918;2023-04-01T17:11:24;16.0;;;13.0;;
22673;SDS011;11504;43.334;21.918;2023-04-01T17:16:50;16.0;;;13.0;;
22673;SDS011;11504;43.334;21.918;2023-04-01T17:22:04;16.0;;;13.0;;
22673;SDS011;11504;43.334;21.918;2023-04-01T17:27:06;16.0;;;14.0;;
22673;SDS011;11504;43.334;21.918;2023-04-01T17:32:11;16.0;;;14.0;;
22673;SDS011;11504;43.334;21.918;2023-04-01T17:37:28;16.0;;;15.0;;
22673;SDS011;11504;43.334;21.918;2023-04-01T17:42:54;16.0;;;15.0;;
22673;SDS011;11504;43.334;21.918;2023-04-01T17:48:18;16.0;;;16.0;;
22673;SDS011;11504;43.334;21.918;2023-04-01T17:53:45;16.0;;;16.0;;
22673;SDS011;11504;43.334;21.918;2023-04-01T17:59:24;17.0;;;16.0;;
22673;SDS011;11504;43.334;21.918;2023-04-01T18:05:05;17.0;;;16.0;;
22673;SDS011;11504;43.334;21.918;2023-04-01T18:10:58;16.0;;;16.0;;
22673;SDS011;11504;43.334;21.918;2023-04-01T18:16:41;16.0;;;16.0;;
22673;SDS011;11504;43.334;21.918;2023-04-01T18:22:19;16.0;;;16.0;;
22673;SDS011;11504;43.334;21.918;2023-04-01T18:27:23;14.0;;;14.0;;
22673;SDS011;11504;43.334;21.918;2023-04-01T18:32:27;14.0;;;14.0;;
22673;SDS011;11504;43.334;21.918;2023-04-01T18:37:26;11.0;;;11.0;;
22673;SDS011;11504;43.334;21.918;2023-04-01T18:42:33;11.0;;;11.0;;
22673;SDS011;11504;43.334;21.918;2023-04-01T18:47:38;16.0;;;16.0;;
22673;SDS011;11504;43.334;21.918;2023-04-01T18:52:28;16.0;;;16.0;;
22673;SDS011;11504;43.334;21.918;2023-04-01T18:57:18;21.0;;;20.0;;
22673;SDS011;11504;43.334;21.918;2023-04-01T19:02:14;21.0;;;20.0;;
22673;SDS011;11504;43.334;21.918;2023-04-01T19:07:47;24.0;;;23.0;;
22673;SDS011;11504;43.334;21.918;2023-04-01T19:12:52;24.0;;;23.0;;
22673;SDS011;11504;43.334;21.918;2023-04-01T19:18:49;27.0;;;26.0;;
22673;SDS011;11504;43.334;21.918;2023-04-01T19:24:34;27.0;;;26.0;;
22673;SDS011;11504;43.334;21.918;2023-04-01T19:30:33;32.0;;;31.0;;
22673;SDS011;11504;43.334;21.918;2023-04-01T19:35:47;38.0;;;36.0;;
22673;SDS011;11504;43.334;21.918;2023-04-01T19:40:57;38.0;;;36.0;;
22673;SDS011;11504;43.334;21.918;2023-04-01T19:46:16;44.0;;;42.0;;
22673;SDS011;11504;43.334;21.918;2023-04-01T19:51:15;44.0;;;42.0;;
22673;SDS011;11504;43.334;21.918;2023-04-01T19:56:17;49.0;;;47.0;;
22673;SDS011;11504;43.334;21.918;2023-04-01T20:01:00;49.0;;;47.0;;
22673;SDS011;11504;43.334;21.918;2023-04-01T20:06:02;44.0;;;42.0;;
22673;SDS011;11504;43.334;21.918;2023-04-01T20:11:08;44.0;;;42.0;;
22673;SDS011;11504;43.334;21.918;2023-04-01T20:16:08;39.0;;;37.0;;
22673;SDS011;11504;43.334;21.918;2023-04-01T20:21:02;39.0;;;37.0;;
22673;SDS011;11504;43.334;21.918;2023-04-01T20:26:04;34.0;;;33.0;;
22673;SDS011;11504;43.334;21.918;2023-04-01T20:31:16;34.0;;;33.0;;
22673;SDS011;11504;43.334;21.918;2023-04-01T20:36:24;30.0;;;29.0;;
22673;SDS011;11504;43.334;21.918;2023-04-01T20:41:48;30.0;;;29.0;;
22673;SDS011;11504;43.334;21.918;2023-04-01T20:47:37;28.0;;;26.0;;
22673;SDS011;11504;43.334;21.918;2023-04-01T20:53:15;28.0;;;26.0;;
22673;SDS011;11504;43.334;21.918;2023-04-01T20:58:31;25.0;;;23.0;;
22673;SDS011;11504;43.334;21.918;2023-04-01T21:04:23;25.0;;;23.0;;
22673;SDS011;11504;43.334;21.918;2023-04-01T21:09:50;24.0;;;23.0;;
22673;SDS011;11504;43.334;21.918;2023-04-01T21:15:18;24.0;;;23.0;;
22673;SDS011;11504;43.334;21.918;2023-04-01T21:21:11;24.0;;;23.0;;
22673;SDS011;11504;43.334;21.918;2023-04-01T21:26:58;23.0;;;22.0;;
22673;SDS011;11504;43.334;21.918;2023-04-01T21:32:26;23.0;;;22.0;;
22673;SDS011;11504;43.334;21.918;2023-04-01T21:38:03;22.0;;;21.0;;
22673;SDS011;11504;43.334;21.918;2023-04-01T21:43:54;22.0;;;21.0;;
22673;SDS011;11504;43.334;21.918;2023-04-01T21:50:19;24.0;;;24.0;;
22673;SDS011;11504;43.334;21.918;2023-04-01T21:59:56;27.0;;;26.0;;
22673;SDS011;11504;43.334;21.918;2023-04-01T22:05:07;27.0;;;26.0;;
22673;SDS011;11504;43.334;21.918;2023-04-01T22:10:28;37.0;;;34.0;;
22673;SDS011;11504;43.334;21.918;2023-04-01T22:15:56;47.0;;;42.0;;
22673;SDS011;11504;43.334;21.918;2023-04-01T22:21:09;47.0;;;42.0;;
22673;SDS011;11504;43.334;21.918;2023-04-01T22:26:16;44.0;;;40.0;;
22673;SDS011;11504;43.334;21.918;2023-04-01T22:31:18;44.0;;;40.0;;
22673;SDS011;11504;43.334;21.918;2023-04-01T22:36:26;41.0;;;39.0;;
22673;SDS011;11504;43.334;21.918;2023-04-01T22:41:30;41.0;;;39.0;;
22673;SDS011;11504;43.334;21.918;2023-04-01T22:46:41;33.0;;;31.0;;
22673;SDS011;11504;43.334;21.918;2023-04-01T22:51:42;33.0;;;31.0;;
22673;SDS011;11504;43.334;21.918;2023-04-01T22:56:37;25.0;;;23.0;;
22673;SDS011;11504;43.334;21.918;2023-04-01T23:01:32;25.0;;;23.0;;
22673;SDS011;11504;43.334;21.918;2023-04-01T23:06:30;24.0;;;23.0;;
22673;SDS011;11504;43.334;21.918;2023-04-01T23:11:23;24.0;;;23.0;;
22673;SDS011;11504;43.334;21.918;2023-04-01T23:16:12;24.0;;;23.0;;
22673;SDS011;11504;43.334;21.918;2023-04-01T23:21:13;24.0;;;23.0;;
22673;SDS011;11504;43.334;21.918;2023-04-01T23:26:21;28.0;;;24.0;;
22673;SDS011;11504;43.334;21.918;2023-04-01T23:31:38;28.0;;;24.0;;
22673;SDS011;11504;43.334;21.918;2023-04-01T23:36:19;32.0;;;24.0;;
22673;SDS011;11504;43.334;21.918;2023-04-01T23:40:56;32.0;;;24.0;;
22673;SDS011;11504;43.334;21.918;2023-04-01T23:45:33;32.0;;;24.0;;
22673;SDS011;11504;43.334;21.918;2023-04-01T23:50:17;22.0;;;17.0;;
22673;SDS011;11504;43.334;21.918;2023-04-01T23:55:18;22.0;;;17.0;;
